createdAt,value
2017-05-03T00:00:30.719Z,0
2017-05-03T00:01:41.917Z,0
2017-05-03T00:02:52.917Z,0
2017-05-03T00:04:03.919Z,0
2017-05-03T00:05:14.920Z,0
2017-05-03T00:06:26.117Z,0
2017-05-03T00:07:37.102Z,0
2017-05-03T00:08:48.095Z,0
2017-05-03T00:09:59.289Z,0
2017-05-03T00:11:10.289Z,0
2017-05-03T00:12:21.328Z,0
2017-05-03T00:13:32.329Z,0
2017-05-03T00:14:43.329Z,0
2017-05-03T00:15:54.382Z,0
2017-05-03T00:17:05.371Z,0
2017-05-03T00:18:16.364Z,0
2017-05-03T00:19:27.362Z,0
2017-05-03T00:20:38.553Z,0
2017-05-03T00:21:49.544Z,0
2017-05-03T00:23:00.544Z,0
2017-05-03T00:24:11.541Z,0
2017-05-03T00:25:22.535Z,0
2017-05-03T00:26:33.573Z,0
2017-05-03T00:27:44.571Z,0
2017-05-03T00:28:55.776Z,0
2017-05-03T00:30:06.776Z,0
2017-05-03T00:31:17.811Z,0
2017-05-03T00:32:28.806Z,0
2017-05-03T00:33:39.809Z,0
2017-05-03T00:34:50.806Z,0
2017-05-03T00:36:01.799Z,0
2017-05-03T00:37:12.846Z,0
2017-05-03T00:38:23.840Z,0
2017-05-03T00:39:35.029Z,0
2017-05-03T00:40:46.029Z,0
2017-05-03T00:41:57.029Z,0
2017-05-03T00:43:08.028Z,0
2017-05-03T00:44:19.259Z,0
2017-05-03T00:45:30.271Z,0
2017-05-03T00:46:41.274Z,0
2017-05-03T00:47:52.326Z,0
2017-05-03T00:49:03.327Z,0
2017-05-03T00:50:14.323Z,0
2017-05-03T00:51:25.325Z,0
2017-05-03T00:52:36.579Z,0
2017-05-03T00:53:47.583Z,0
2017-05-03T00:54:58.789Z,0
2017-05-03T00:56:09.786Z,0
2017-05-03T00:57:20.782Z,0
2017-05-03T00:58:31.824Z,0
2017-05-03T00:59:42.865Z,0
2017-05-03T01:00:53.857Z,0
2017-05-03T01:02:04.878Z,0
2017-05-03T01:03:15.907Z,0
2017-05-03T01:04:27.200Z,0
2017-05-03T01:05:38.233Z,0
2017-05-03T01:06:49.269Z,0
2017-05-03T01:08:00.316Z,0
2017-05-03T01:09:11.556Z,0
2017-05-03T01:10:22.601Z,0
2017-05-03T01:11:33.629Z,0
2017-05-03T01:12:44.676Z,0
2017-05-03T01:13:55.742Z,0
2017-05-03T01:15:06.783Z,0
2017-05-03T01:16:17.820Z,0
2017-05-03T01:17:29.055Z,0
2017-05-03T01:18:40.097Z,0
2017-05-03T01:19:51.133Z,0
2017-05-03T01:21:02.219Z,0
2017-05-03T01:22:13.249Z,0
2017-05-03T01:23:24.269Z,0
2017-05-03T01:24:35.499Z,0
2017-05-03T01:25:46.539Z,0
2017-05-03T01:26:57.570Z,0
2017-05-03T01:28:09.032Z,0
2017-05-03T01:29:20.078Z,0
2017-05-03T01:30:31.322Z,0
2017-05-03T01:31:42.412Z,0
2017-05-03T01:32:53.453Z,0
2017-05-03T01:34:04.495Z,0
2017-05-03T01:35:15.526Z,0
2017-05-03T01:36:26.971Z,0
2017-05-03T01:37:38.023Z,0
2017-05-03T01:38:49.266Z,0
2017-05-03T01:40:00.307Z,0
2017-05-03T01:41:11.340Z,0
2017-05-03T01:42:22.437Z,0
2017-05-03T01:43:33.467Z,0
2017-05-03T01:44:44.511Z,0
2017-05-03T01:45:55.547Z,0
2017-05-03T01:47:06.572Z,0
2017-05-03T01:48:17.604Z,0
2017-05-03T01:49:28.646Z,0
2017-05-03T01:50:39.696Z,0
2017-05-03T01:51:50.929Z,0
2017-05-03T01:53:02.008Z,0
2017-05-03T01:54:13.058Z,0
2017-05-03T01:55:24.296Z,0
2017-05-03T01:56:35.529Z,0
2017-05-03T01:57:46.566Z,0
2017-05-03T01:58:57.602Z,0
2017-05-03T02:00:08.630Z,0
2017-05-03T02:01:19.657Z,0
2017-05-03T02:02:30.690Z,0
2017-05-03T02:03:41.788Z,0
2017-05-03T02:04:52.822Z,0
2017-05-03T02:06:03.862Z,0
2017-05-03T02:07:14.891Z,0
2017-05-03T02:08:26.128Z,0
2017-05-03T02:09:37.219Z,0
2017-05-03T02:10:48.246Z,0
2017-05-03T02:11:59.281Z,0
2017-05-03T02:13:10.330Z,0
2017-05-03T02:14:21.578Z,0
2017-05-03T02:15:32.811Z,0
2017-05-03T02:16:44.052Z,0
2017-05-03T02:17:55.090Z,0
2017-05-03T02:19:06.536Z,0
2017-05-03T02:20:17.767Z,0
2017-05-03T02:21:28.807Z,0
2017-05-03T02:22:39.842Z,0
2017-05-03T02:23:50.865Z,0
2017-05-03T02:25:01.907Z,0
2017-05-03T02:26:12.948Z,0
2017-05-03T02:27:24.175Z,0
2017-05-03T02:28:35.214Z,0
2017-05-03T02:29:46.269Z,0
2017-05-03T02:30:57.349Z,0
2017-05-03T02:32:08.375Z,0
2017-05-03T02:33:19.401Z,0
2017-05-03T02:34:30.441Z,0
2017-05-03T02:35:41.672Z,0
2017-05-03T02:36:52.708Z,0
2017-05-03T02:38:03.742Z,0
2017-05-03T02:39:15.167Z,0
2017-05-03T02:40:26.200Z,0
2017-05-03T02:41:37.275Z,0
2017-05-03T02:42:48.319Z,0
2017-05-03T02:43:59.566Z,0
2017-05-03T02:45:10.609Z,0
2017-05-03T02:46:21.645Z,0
2017-05-03T02:47:33.090Z,0
2017-05-03T02:48:44.326Z,0
2017-05-03T02:49:55.372Z,0
2017-05-03T02:51:06.407Z,0
2017-05-03T02:52:17.494Z,0
2017-05-03T02:53:28.523Z,0
2017-05-03T02:54:39.555Z,0
2017-05-03T02:55:50.596Z,0
2017-05-03T02:57:01.627Z,0
2017-05-03T02:58:12.661Z,0
2017-05-03T02:59:23.697Z,0
2017-05-03T03:00:34.937Z,0
2017-05-03T03:01:46.170Z,0
2017-05-03T03:02:57.451Z,0
2017-05-03T03:04:08.483Z,0
2017-05-03T03:05:19.515Z,0
2017-05-03T03:06:30.540Z,0
2017-05-03T03:07:41.573Z,0
2017-05-03T03:08:52.649Z,0
2017-05-03T03:10:03.687Z,0
2017-05-03T03:11:14.742Z,0
2017-05-03T03:12:25.785Z,0
2017-05-03T03:13:36.826Z,0
2017-05-03T03:14:48.072Z,0
2017-05-03T03:15:59.103Z,0
2017-05-03T03:17:10.331Z,0
2017-05-03T03:18:21.361Z,0
2017-05-03T03:19:32.602Z,0
2017-05-03T03:20:43.773Z,0
2017-05-03T03:21:54.801Z,0
2017-05-03T03:23:05.847Z,4
2017-05-03T03:24:16.881Z,4
2017-05-03T03:25:27.971Z,0
2017-05-03T03:26:38.995Z,4
2017-05-03T03:27:50.232Z,0
2017-05-03T03:29:01.269Z,4
2017-05-03T03:30:12.297Z,4
2017-05-03T03:31:23.326Z,4
2017-05-03T03:32:34.363Z,8
2017-05-03T03:33:45.435Z,8
2017-05-03T03:34:56.471Z,8
2017-05-03T03:36:07.551Z,8
2017-05-03T03:37:18.589Z,12
2017-05-03T03:38:29.623Z,16
2017-05-03T03:39:40.658Z,16
2017-05-03T03:40:51.694Z,20
2017-05-03T03:42:02.768Z,24
2017-05-03T03:43:14.008Z,28
2017-05-03T03:44:25.093Z,28
2017-05-03T03:45:36.129Z,36
2017-05-03T03:46:47.403Z,40
2017-05-03T03:47:58.435Z,44
2017-05-03T03:49:09.687Z,52
2017-05-03T03:50:20.909Z,60
2017-05-03T03:51:31.940Z,64
2017-05-03T03:52:42.979Z,64
2017-05-03T03:53:54.012Z,68
2017-05-03T03:55:05.038Z,76
2017-05-03T03:56:16.074Z,80
2017-05-03T03:57:27.149Z,88
2017-05-03T03:58:38.381Z,96
2017-05-03T03:59:49.421Z,96
2017-05-03T04:01:00.459Z,100
2017-05-03T04:02:11.495Z,100
2017-05-03T04:03:22.538Z,108
2017-05-03T04:04:33.566Z,112
2017-05-03T04:05:44.605Z,128
2017-05-03T04:06:55.633Z,140
2017-05-03T04:08:06.703Z,140
2017-05-03T04:09:17.740Z,148
2017-05-03T04:10:29.012Z,164
2017-05-03T04:11:40.281Z,180
2017-05-03T04:12:51.320Z,200
2017-05-03T04:14:02.412Z,220
2017-05-03T04:15:13.445Z,228
2017-05-03T04:16:24.471Z,244
2017-05-03T04:17:35.504Z,272
2017-05-03T04:18:46.546Z,304
2017-05-03T04:19:57.617Z,324
2017-05-03T04:21:08.655Z,332
2017-05-03T04:22:19.890Z,320
2017-05-03T04:23:31.125Z,296
2017-05-03T04:24:42.358Z,284
2017-05-03T04:25:53.399Z,284
2017-05-03T04:27:04.439Z,300
2017-05-03T04:28:15.485Z,300
2017-05-03T04:29:26.527Z,300
2017-05-03T04:30:37.616Z,312
2017-05-03T04:31:48.846Z,312
2017-05-03T04:32:59.883Z,316
2017-05-03T04:34:10.927Z,320
2017-05-03T04:35:22.169Z,328
2017-05-03T04:36:33.400Z,360
2017-05-03T04:37:44.427Z,368
2017-05-03T04:38:55.666Z,356
2017-05-03T04:40:06.907Z,336
2017-05-03T04:41:17.993Z,308
2017-05-03T04:42:29.020Z,284
2017-05-03T04:43:40.056Z,272
2017-05-03T04:44:51.094Z,268
2017-05-03T04:46:02.131Z,244
2017-05-03T04:47:13.168Z,224
2017-05-03T04:48:24.204Z,216
2017-05-03T04:49:35.430Z,216
2017-05-03T04:50:46.456Z,212
2017-05-03T04:51:57.947Z,224
2017-05-03T04:53:08.983Z,236
2017-05-03T04:54:20.217Z,240
2017-05-03T04:55:31.447Z,240
2017-05-03T04:56:42.684Z,248
2017-05-03T04:57:53.728Z,256
2017-05-03T04:59:05.174Z,248
2017-05-03T05:00:16.213Z,252
2017-05-03T05:01:27.441Z,264
2017-05-03T05:02:38.535Z,284
2017-05-03T05:03:49.563Z,292
2017-05-03T05:05:00.823Z,272
2017-05-03T05:06:11.909Z,260
2017-05-03T05:07:22.968Z,276
2017-05-03T05:08:34.006Z,276
2017-05-03T05:09:45.049Z,276
2017-05-03T05:10:56.271Z,256
2017-05-03T05:12:07.307Z,212
2017-05-03T05:13:18.395Z,240
2017-05-03T05:14:29.416Z,292
2017-05-03T05:15:40.453Z,312
2017-05-03T05:16:51.486Z,324
2017-05-03T05:18:02.531Z,344
2017-05-03T05:19:13.615Z,376
2017-05-03T05:20:24.653Z,412
2017-05-03T05:21:35.687Z,508
2017-05-03T05:22:46.919Z,600
2017-05-03T05:23:57.994Z,640
2017-05-03T05:25:09.023Z,656
2017-05-03T05:26:20.067Z,688
2017-05-03T05:27:31.094Z,700
2017-05-03T05:28:42.118Z,688
2017-05-03T05:29:53.155Z,688
2017-05-03T05:31:04.191Z,700
2017-05-03T05:32:15.233Z,716
2017-05-03T05:33:26.273Z,780
2017-05-03T05:34:37.289Z,868
2017-05-03T05:35:48.308Z,980
2017-05-03T05:36:59.344Z,1100
2017-05-03T05:38:10.383Z,1224
2017-05-03T05:39:21.409Z,1356
2017-05-03T05:40:32.692Z,1500
2017-05-03T05:41:43.923Z,1672
2017-05-03T05:42:54.962Z,1860
2017-05-03T05:44:06.208Z,2016
2017-05-03T05:45:17.251Z,2132
2017-05-03T05:46:28.280Z,2220
2017-05-03T05:47:39.519Z,2316
2017-05-03T05:48:50.553Z,2400
2017-05-03T05:50:01.579Z,2492
2017-05-03T05:51:12.646Z,2596
2017-05-03T05:52:23.875Z,2756
2017-05-03T05:53:34.911Z,2844
2017-05-03T05:54:45.949Z,2964
2017-05-03T05:55:57.184Z,3000
2017-05-03T05:57:08.416Z,2840
2017-05-03T05:58:19.844Z,2488
2017-05-03T05:59:31.083Z,2340
2017-05-03T06:00:42.316Z,2248
2017-05-03T06:01:53.408Z,2280
2017-05-03T06:03:04.447Z,2148
2017-05-03T06:04:15.474Z,2084
2017-05-03T06:05:26.493Z,2032
2017-05-03T06:06:37.530Z,2084
2017-05-03T06:07:48.567Z,2152
2017-05-03T06:08:59.594Z,2164
2017-05-03T06:10:10.635Z,2220
2017-05-03T06:11:21.868Z,2308
2017-05-03T06:12:32.944Z,2348
2017-05-03T06:13:43.977Z,2612
2017-05-03T06:14:55.023Z,2504
2017-05-03T06:16:06.106Z,2700
2017-05-03T06:17:17.135Z,2836
2017-05-03T06:18:28.421Z,3076
2017-05-03T06:19:39.450Z,3076
2017-05-03T06:20:50.679Z,3168
2017-05-03T06:22:01.713Z,3248
2017-05-03T06:23:12.765Z,3340
2017-05-03T06:24:23.809Z,3384
2017-05-03T06:25:35.043Z,3668
2017-05-03T06:26:46.077Z,4156
2017-05-03T06:27:57.107Z,4604
2017-05-03T06:29:08.144Z,4808
2017-05-03T06:30:19.184Z,4904
2017-05-03T06:31:30.423Z,5080
2017-05-03T06:32:41.459Z,5504
2017-05-03T06:33:52.518Z,5792
2017-05-03T06:35:03.598Z,5620
2017-05-03T06:36:14.622Z,6008
2017-05-03T06:37:25.852Z,6104
2017-05-03T06:38:36.877Z,5704
2017-05-03T06:39:47.916Z,5312
2017-05-03T06:40:58.956Z,4836
2017-05-03T06:42:09.991Z,4320
2017-05-03T06:43:21.031Z,4072
2017-05-03T06:44:32.069Z,4272
2017-05-03T06:45:43.148Z,4236
2017-05-03T06:46:54.188Z,4392
2017-05-03T06:48:05.233Z,4520
2017-05-03T06:49:16.268Z,4996
2017-05-03T06:50:27.301Z,5368
2017-05-03T06:51:38.330Z,5028
2017-05-03T06:52:49.381Z,5004
2017-05-03T06:54:00.416Z,5144
2017-05-03T06:55:11.443Z,5104
2017-05-03T06:56:22.529Z,5560
2017-05-03T06:57:33.559Z,4676
2017-05-03T06:58:45.070Z,4252
2017-05-03T06:59:56.101Z,4332
2017-05-03T07:01:07.145Z,4028
2017-05-03T07:02:18.386Z,3616
2017-05-03T07:03:29.420Z,3580
2017-05-03T07:04:40.447Z,3572
2017-05-03T07:05:51.478Z,3584
2017-05-03T07:07:02.566Z,3792
2017-05-03T07:08:13.593Z,3236
2017-05-03T07:09:24.635Z,3048
2017-05-03T07:10:35.657Z,3228
2017-05-03T07:11:46.692Z,3148
2017-05-03T07:12:57.729Z,3120
2017-05-03T07:14:08.758Z,3596
2017-05-03T07:15:19.804Z,4260
2017-05-03T07:16:30.843Z,4876
2017-05-03T07:17:41.928Z,5348
2017-05-03T07:18:52.966Z,7480
2017-05-03T07:20:04.003Z,12396
2017-05-03T07:21:15.047Z,18976
2017-05-03T07:22:26.077Z,19072
2017-05-03T07:23:37.154Z,20704
2017-05-03T07:24:48.186Z,17088
2017-05-03T07:25:59.663Z,22784
2017-05-03T07:27:10.894Z,27840
2017-05-03T07:28:21.955Z,17280
2017-05-03T07:29:32.990Z,19552
2017-05-03T07:30:44.028Z,11604
2017-05-03T07:31:55.058Z,12212
2017-05-03T07:33:06.120Z,12268
2017-05-03T07:34:17.359Z,19392
2017-05-03T07:35:28.603Z,14644
2017-05-03T07:36:39.831Z,16736
2017-05-03T07:37:50.858Z,16032
2017-05-03T07:39:01.890Z,20192
2017-05-03T07:40:12.982Z,10904
2017-05-03T07:41:24.016Z,8908
2017-05-03T07:42:35.247Z,11556
2017-05-03T07:43:46.290Z,9660
2017-05-03T07:44:57.335Z,8496
2017-05-03T07:46:08.562Z,6740
2017-05-03T07:47:19.596Z,6600
2017-05-03T07:48:30.625Z,7460
2017-05-03T07:49:41.662Z,7432
2017-05-03T07:50:52.754Z,7764
2017-05-03T07:52:03.794Z,8556
2017-05-03T07:53:14.838Z,10824
2017-05-03T07:54:25.867Z,20512
2017-05-03T07:55:36.892Z,15164
2017-05-03T07:56:48.128Z,21952
2017-05-03T07:57:59.166Z,37696
2017-05-03T07:59:10.205Z,33792
2017-05-03T08:00:21.244Z,36416
2017-05-03T08:01:32.334Z,29504
2017-05-03T08:02:43.365Z,30272
2017-05-03T08:03:54.399Z,41056
2017-05-03T08:05:05.445Z,18272
2017-05-03T08:06:16.491Z,11692
2017-05-03T08:07:27.533Z,8272
2017-05-03T08:08:38.557Z,9276
2017-05-03T08:09:50.004Z,8012
2017-05-03T08:11:01.262Z,8976
2017-05-03T08:12:12.586Z,8384
2017-05-03T08:13:23.834Z,8652
2017-05-03T08:14:35.077Z,11256
2017-05-03T08:15:46.124Z,15808
2017-05-03T08:16:57.170Z,18432
2017-05-03T08:18:08.208Z,20704
2017-05-03T08:19:19.253Z,18432
2017-05-03T08:20:30.291Z,17376
2017-05-03T08:21:41.526Z,14040
2017-05-03T08:22:52.811Z,14136
2017-05-03T08:24:03.841Z,17856
2017-05-03T08:25:14.872Z,20192
2017-05-03T08:26:25.908Z,22912
2017-05-03T08:27:36.942Z,55168
2017-05-03T08:28:48.247Z,38944
2017-05-03T08:29:59.288Z,21792
2017-05-03T08:31:10.326Z,27168
2017-05-03T08:32:21.600Z,28544
2017-05-03T08:33:32.641Z,66144
2017-05-03T08:34:43.687Z,15264
2017-05-03T08:35:54.921Z,17664
2017-05-03T08:37:05.965Z,62976
2017-05-03T08:38:17.015Z,37504
2017-05-03T08:39:28.072Z,21664
2017-05-03T08:40:39.147Z,27392
2017-05-03T08:41:50.195Z,65856
2017-05-03T08:43:01.235Z,16032
2017-05-03T08:44:12.280Z,17408
2017-05-03T08:45:23.313Z,21888
2017-05-03T08:46:34.348Z,20864
2017-05-03T08:47:45.386Z,46144
2017-05-03T08:48:56.421Z,23872
2017-05-03T08:50:07.514Z,44160
2017-05-03T08:51:18.552Z,29856
2017-05-03T08:52:29.790Z,35008
2017-05-03T08:53:40.848Z,41600
2017-05-03T08:54:51.902Z,52288
2017-05-03T08:56:02.944Z,51744
2017-05-03T08:57:14.397Z,66400
2017-05-03T08:58:25.631Z,66912
2017-05-03T08:59:36.872Z,66592
2017-05-03T09:00:47.983Z,35872
2017-05-03T09:01:59.020Z,66112
2017-05-03T09:03:10.064Z,58784
2017-05-03T09:04:21.116Z,65248
2017-05-03T09:05:32.361Z,61792
2017-05-03T09:06:43.410Z,60800
2017-05-03T09:07:54.446Z,61344
2017-05-03T09:09:05.681Z,62880
2017-05-03T09:10:16.730Z,62496
2017-05-03T09:11:27.832Z,61184
2017-05-03T09:12:38.878Z,22816
2017-05-03T09:13:50.125Z,22272
2017-05-03T09:15:01.177Z,52000
2017-05-03T09:16:12.239Z,65536
2017-05-03T09:17:23.519Z,33216
2017-05-03T09:18:34.773Z,59712
2017-05-03T09:19:45.827Z,43040
2017-05-03T09:20:57.072Z,15036
2017-05-03T09:22:08.407Z,16480
2017-05-03T09:23:19.652Z,13952
2017-05-03T09:24:30.703Z,14288
2017-05-03T09:25:41.748Z,14936
2017-05-03T09:26:52.786Z,16928
2017-05-03T09:28:03.836Z,18560
2017-05-03T09:29:14.886Z,18496
2017-05-03T09:30:25.923Z,20800
2017-05-03T09:31:37.363Z,35328
2017-05-03T09:32:48.458Z,62944
2017-05-03T09:33:59.502Z,58976
2017-05-03T09:35:10.744Z,46816
2017-05-03T09:36:21.780Z,51104
2017-05-03T09:37:32.830Z,28000
2017-05-03T09:38:43.913Z,19616
2017-05-03T09:39:54.963Z,21600
2017-05-03T09:41:06.213Z,51552
2017-05-03T09:42:17.455Z,57984
2017-05-03T09:43:28.504Z,53152
2017-05-03T09:44:39.557Z,52096
2017-05-03T09:45:50.601Z,57152
2017-05-03T09:47:01.663Z,60128
2017-05-03T09:48:12.720Z,43552
2017-05-03T09:49:23.815Z,60608
2017-05-03T09:50:34.902Z,55840
2017-05-03T09:51:45.960Z,14256
2017-05-03T09:52:57.002Z,13876
2017-05-03T09:54:08.059Z,13364
2017-05-03T09:55:19.088Z,14232
2017-05-03T09:56:30.341Z,18432
2017-05-03T09:57:41.592Z,48288
2017-05-03T09:58:52.638Z,17152
2017-05-03T10:00:03.728Z,12496
2017-05-03T10:01:14.986Z,13884
2017-05-03T10:02:26.026Z,14156
2017-05-03T10:03:37.065Z,16128
2017-05-03T10:04:48.118Z,21152
2017-05-03T10:05:59.163Z,22848
2017-05-03T10:07:10.222Z,20384
2017-05-03T10:08:21.475Z,32064
2017-05-03T10:09:32.514Z,42240
2017-05-03T10:10:43.603Z,56128
2017-05-03T10:11:54.848Z,55392
2017-05-03T10:13:05.902Z,18528
2017-05-03T10:14:16.946Z,17504
2017-05-03T10:15:28.193Z,23712
2017-05-03T10:16:39.446Z,61312
2017-05-03T10:17:50.500Z,25376
2017-05-03T10:19:01.539Z,16256
2017-05-03T10:20:12.593Z,15552
2017-05-03T10:21:23.684Z,16608
2017-05-03T10:22:34.754Z,18944
2017-05-03T10:23:45.829Z,19328
2017-05-03T10:24:56.886Z,19520
2017-05-03T10:26:07.928Z,17856
2017-05-03T10:27:18.964Z,17312
2017-05-03T10:28:30.201Z,18112
2017-05-03T10:29:41.458Z,20544
2017-05-03T10:30:52.694Z,30784
2017-05-03T10:32:03.985Z,27584
2017-05-03T10:33:15.038Z,31168
2017-05-03T10:34:26.084Z,31104
2017-05-03T10:35:37.329Z,31200
2017-05-03T10:36:48.375Z,30624
2017-05-03T10:37:59.467Z,29120
2017-05-03T10:39:10.708Z,27072
2017-05-03T10:40:21.948Z,26144
2017-05-03T10:41:33.187Z,26304
2017-05-03T10:42:44.443Z,28096
2017-05-03T10:43:55.493Z,27648
2017-05-03T10:45:06.528Z,26880
2017-05-03T10:46:17.569Z,24512
2017-05-03T10:47:28.609Z,21440
2017-05-03T10:48:39.650Z,22816
2017-05-03T10:49:50.739Z,19520
2017-05-03T10:51:01.775Z,20576
2017-05-03T10:52:12.814Z,20928
2017-05-03T10:53:23.853Z,19616
2017-05-03T10:54:34.889Z,22752
2017-05-03T10:55:45.930Z,19072
2017-05-03T10:56:56.973Z,18528
2017-05-03T10:58:08.208Z,19360
2017-05-03T10:59:19.290Z,22432
2017-05-03T11:00:30.352Z,20160
2017-05-03T11:01:41.605Z,20832
2017-05-03T11:02:52.849Z,21024
2017-05-03T11:04:03.891Z,20736
2017-05-03T11:05:14.937Z,21952
2017-05-03T11:06:25.978Z,22752
2017-05-03T11:07:37.008Z,23104
2017-05-03T11:08:48.243Z,23712
2017-05-03T11:09:59.330Z,24960
2017-05-03T11:11:10.368Z,25376
2017-05-03T11:12:21.399Z,26272
2017-05-03T11:13:32.637Z,24800
2017-05-03T11:14:43.895Z,25408
2017-05-03T11:15:54.939Z,26912
2017-05-03T11:17:06.177Z,26144
2017-05-03T11:18:17.215Z,25120
2017-05-03T11:19:28.251Z,17632
2017-05-03T11:20:39.337Z,25536
2017-05-03T11:21:50.379Z,25472
2017-05-03T11:23:01.825Z,25664
2017-05-03T11:24:12.869Z,24288
2017-05-03T11:25:23.911Z,16480
2017-05-03T11:26:34.956Z,17920
2017-05-03T11:27:45.997Z,22912
2017-05-03T11:28:57.240Z,26464
2017-05-03T11:30:08.270Z,26208
2017-05-03T11:31:19.575Z,25760
2017-05-03T11:32:30.624Z,23552
2017-05-03T11:33:41.671Z,23104
2017-05-03T11:34:52.730Z,24160
2017-05-03T11:36:03.777Z,24352
2017-05-03T11:37:14.864Z,23904
2017-05-03T11:38:25.904Z,23264
2017-05-03T11:39:36.965Z,21920
2017-05-03T11:40:48.015Z,20608
2017-05-03T11:41:59.059Z,19872
2017-05-03T11:43:10.112Z,18944
2017-05-03T11:44:21.362Z,18080
2017-05-03T11:45:32.810Z,17280
2017-05-03T11:46:43.854Z,13400
2017-05-03T11:47:54.892Z,15136
2017-05-03T11:49:05.929Z,13244
2017-05-03T11:50:16.966Z,15520
2017-05-03T11:51:28.012Z,20512
2017-05-03T11:52:39.051Z,21280
2017-05-03T11:53:50.131Z,23136
2017-05-03T11:55:01.172Z,23840
2017-05-03T11:56:12.212Z,17408
2017-05-03T11:57:23.444Z,18400
2017-05-03T11:58:34.490Z,16192
2017-05-03T11:59:45.538Z,14924
2017-05-03T12:00:56.579Z,21504
2017-05-03T12:02:07.628Z,21600
2017-05-03T12:03:18.871Z,21664
2017-05-03T12:04:29.956Z,22848
2017-05-03T12:05:40.991Z,21280
2017-05-03T12:06:52.023Z,20544
2017-05-03T12:08:03.069Z,21760
2017-05-03T12:09:14.117Z,22528
2017-05-03T12:10:25.214Z,21344
2017-05-03T12:11:36.252Z,14776
2017-05-03T12:12:47.305Z,20800
2017-05-03T12:13:58.550Z,19424
2017-05-03T12:15:09.663Z,20768
2017-05-03T12:16:20.706Z,19424
2017-05-03T12:17:31.962Z,19424
2017-05-03T12:18:43.005Z,18560
2017-05-03T12:19:54.043Z,18784
2017-05-03T12:21:05.298Z,17312
2017-05-03T12:22:16.342Z,16576
2017-05-03T12:23:27.578Z,15520
2017-05-03T12:24:38.622Z,12532
2017-05-03T12:25:49.918Z,13208
2017-05-03T12:27:01.173Z,16544
2017-05-03T12:28:12.208Z,16608
2017-05-03T12:29:23.245Z,16256
2017-05-03T12:30:34.290Z,15552
2017-05-03T12:31:45.385Z,14368
2017-05-03T12:32:56.422Z,12284
2017-05-03T12:34:07.470Z,10472
2017-05-03T12:35:18.710Z,10536
2017-05-03T12:36:30.205Z,11456
2017-05-03T12:37:41.246Z,10992
2017-05-03T12:38:52.290Z,11096
2017-05-03T12:40:03.525Z,11548
2017-05-03T12:41:14.554Z,12300
2017-05-03T12:42:25.838Z,13264
2017-05-03T12:43:37.076Z,13792
2017-05-03T12:44:48.313Z,13256
2017-05-03T12:45:59.343Z,13208
2017-05-03T12:47:10.390Z,13104
2017-05-03T12:48:21.437Z,12960
2017-05-03T12:49:32.471Z,13460
2017-05-03T12:50:43.708Z,14752
2017-05-03T12:51:54.742Z,15072
2017-05-03T12:53:05.778Z,15712
2017-05-03T12:54:16.871Z,13664
2017-05-03T12:55:27.919Z,11592
2017-05-03T12:56:38.961Z,11064
2017-05-03T12:57:50.004Z,9968
2017-05-03T12:59:01.037Z,9272
2017-05-03T13:00:12.086Z,8900
2017-05-03T13:01:23.128Z,8856
2017-05-03T13:02:34.178Z,8996
2017-05-03T13:03:45.297Z,9220
2017-05-03T13:04:56.383Z,9168
2017-05-03T13:06:07.636Z,9072
2017-05-03T13:07:18.680Z,8984
2017-05-03T13:08:29.920Z,8704
2017-05-03T13:09:40.963Z,8468
2017-05-03T13:10:51.991Z,8804
2017-05-03T13:12:03.033Z,9036
2017-05-03T13:13:14.061Z,9644
2017-05-03T13:14:25.152Z,10408
2017-05-03T13:15:36.198Z,10836
2017-05-03T13:16:47.241Z,11128
2017-05-03T13:17:58.315Z,10928
2017-05-03T13:19:09.356Z,10324
2017-05-03T13:20:20.403Z,9564
2017-05-03T13:21:31.432Z,8852
2017-05-03T13:22:42.478Z,8168
2017-05-03T13:23:53.520Z,7516
2017-05-03T13:25:05.018Z,7152
2017-05-03T13:26:16.068Z,7056
2017-05-03T13:27:27.107Z,7048
2017-05-03T13:28:38.148Z,7100
2017-05-03T13:29:49.195Z,7284
2017-05-03T13:31:00.239Z,7588
2017-05-03T13:32:11.285Z,7988
2017-05-03T13:33:22.329Z,8248
2017-05-03T13:34:33.369Z,8352
2017-05-03T13:35:44.456Z,8224
2017-05-03T13:36:55.498Z,7984
2017-05-03T13:38:06.744Z,7720
2017-05-03T13:39:17.777Z,7540
2017-05-03T13:40:28.819Z,7392
2017-05-03T13:41:39.914Z,7280
2017-05-03T13:42:50.943Z,7308
2017-05-03T13:44:01.972Z,7544
2017-05-03T13:45:13.024Z,8068
2017-05-03T13:46:24.266Z,8740
2017-05-03T13:47:35.302Z,9324
2017-05-03T13:48:46.350Z,9624
2017-05-03T13:49:57.382Z,9764
2017-05-03T13:51:08.628Z,9800
2017-05-03T13:52:19.668Z,9732
2017-05-03T13:53:30.905Z,9620
2017-05-03T13:54:42.151Z,9416
2017-05-03T13:55:53.198Z,9208
2017-05-03T13:57:04.236Z,8868
2017-05-03T13:58:15.269Z,8520
2017-05-03T13:59:26.506Z,8172
2017-05-03T14:00:37.528Z,7828
2017-05-03T14:01:48.772Z,7640
2017-05-03T14:02:59.815Z,7752
2017-05-03T14:04:10.911Z,8192
2017-05-03T14:05:21.963Z,8452
2017-05-03T14:06:32.995Z,8584
2017-05-03T14:07:44.038Z,8764
2017-05-03T14:08:55.078Z,8996
2017-05-03T14:10:06.112Z,9104
2017-05-03T14:11:17.147Z,9052
2017-05-03T14:12:28.188Z,8936
2017-05-03T14:13:39.238Z,8932
2017-05-03T14:14:50.517Z,8776
2017-05-03T14:16:01.558Z,8676
2017-05-03T14:17:12.601Z,8476
2017-05-03T14:18:23.647Z,8284
2017-05-03T14:19:34.698Z,8036
2017-05-03T14:20:45.728Z,7788
2017-05-03T14:21:56.961Z,7584
2017-05-03T14:23:07.996Z,7504
2017-05-03T14:24:19.035Z,7392
2017-05-03T14:25:30.118Z,7360
2017-05-03T14:26:41.155Z,7376
2017-05-03T14:27:52.194Z,7456
2017-05-03T14:29:03.232Z,7540
2017-05-03T14:30:14.266Z,7592
2017-05-03T14:31:25.304Z,7640
2017-05-03T14:32:36.343Z,7656
2017-05-03T14:33:47.390Z,7676
2017-05-03T14:34:58.431Z,7648
2017-05-03T14:36:09.521Z,7588
2017-05-03T14:37:20.797Z,7508
2017-05-03T14:38:31.829Z,7448
2017-05-03T14:39:42.863Z,7428
2017-05-03T14:40:53.899Z,7324
2017-05-03T14:42:05.150Z,7268
2017-05-03T14:43:16.190Z,7192
2017-05-03T14:44:27.230Z,7112
2017-05-03T14:45:38.459Z,7056
2017-05-03T14:46:49.553Z,7032
2017-05-03T14:48:00.592Z,7012
2017-05-03T14:49:11.640Z,6940
2017-05-03T14:50:22.683Z,6820
2017-05-03T14:51:33.723Z,6672
2017-05-03T14:52:44.972Z,6508
2017-05-03T14:53:56.011Z,6368
2017-05-03T14:55:07.049Z,6216
2017-05-03T14:56:18.084Z,6104
2017-05-03T14:57:29.130Z,6048
2017-05-03T14:58:40.154Z,6036
2017-05-03T14:59:51.188Z,6040
2017-05-03T15:01:02.240Z,6024
2017-05-03T15:02:13.276Z,5976
2017-05-03T15:03:24.362Z,5896
2017-05-03T15:04:35.401Z,5728
2017-05-03T15:05:46.436Z,5412
2017-05-03T15:06:57.467Z,4992
2017-05-03T15:08:08.505Z,4620
2017-05-03T15:09:19.564Z,4424
2017-05-03T15:10:30.589Z,4356
2017-05-03T15:11:41.631Z,4340
2017-05-03T15:12:52.670Z,4256
2017-05-03T15:14:03.758Z,4052
2017-05-03T15:15:14.799Z,3740
2017-05-03T15:16:25.837Z,3412
2017-05-03T15:17:36.871Z,3092
2017-05-03T15:18:48.104Z,2708
2017-05-03T15:19:59.152Z,2304
2017-05-03T15:21:10.189Z,1932
2017-05-03T15:22:21.215Z,1628
2017-05-03T15:23:32.246Z,1416
2017-05-03T15:24:43.323Z,1272
2017-05-03T15:25:54.356Z,1196
2017-05-03T15:27:05.607Z,1156
2017-05-03T15:28:16.856Z,1168
2017-05-03T15:29:27.896Z,1224
2017-05-03T15:30:38.920Z,1332
2017-05-03T15:31:49.964Z,1472
2017-05-03T15:33:00.992Z,1624
2017-05-03T15:34:12.022Z,1716
2017-05-03T15:35:23.107Z,1720
2017-05-03T15:36:34.351Z,1652
2017-05-03T15:37:45.603Z,1560
2017-05-03T15:38:56.841Z,1476
2017-05-03T15:40:08.081Z,1424
2017-05-03T15:41:19.313Z,1412
2017-05-03T15:42:30.376Z,1444
2017-05-03T15:43:41.626Z,1512
2017-05-03T15:44:52.663Z,1596
2017-05-03T15:46:03.757Z,1652
2017-05-03T15:47:15.041Z,1624
2017-05-03T15:48:26.284Z,1536
2017-05-03T15:49:37.325Z,1476
2017-05-03T15:50:48.359Z,1472
2017-05-03T15:51:59.639Z,1500
2017-05-03T15:53:10.876Z,1528
2017-05-03T15:54:21.915Z,1528
2017-05-03T15:55:32.952Z,1484
2017-05-03T15:56:43.981Z,1408
2017-05-03T15:57:55.019Z,1296
2017-05-03T15:59:06.064Z,1160
2017-05-03T16:00:17.096Z,1028
2017-05-03T16:01:28.133Z,900